Overview Statistics Trail Chart Weather Telemetry Raw packets
 

This is the latest recevied weather packets stored in our database for station/object S51UL-6. If no packets are shown the sender has not sent any weather packets the latest 10 day(s).

<< 6 7 8 9 10 11 12 >>
Time Temp. Humidity Pressure Rain* Wind** Luminosity Snow
1788620130 20.56° C 80% 1020.7 hPa 0 mm - - -
1788619830 20° C 81% 1020.8 hPa 0 mm - - -
1788619530 20° C 81% 1020.7 hPa 0 mm - - -
1788619230 19.44° C 82% 1020.6 hPa 0 mm - - -
1788618931 19.44° C 82% 1020.5 hPa 0 mm - - -
1788618630 18.89° C 81% 1020.8 hPa 0 mm - - -
1788618330 18.33° C 80% 1020.9 hPa 0 mm - - -
1788617730 18.33° C 80% 1021.1 hPa 0 mm - - -
1788617431 18.33° C 79% 1020.9 hPa 0 mm - - -
1788617131 18.89° C 79% 1021 hPa 0 mm - - -
1788616830 18.89° C 80% 1021 hPa 0.51 mm - - -
1788616531 18.89° C 79% 1021 hPa 0.51 mm - - -
1788616233 18.89° C 79% 1020.9 hPa 0.51 mm - - -
1788615931 18.89° C 78% 1021.1 hPa 1.52 mm - - -
1788615667 18.89° C 77% 1021.1 hPa 1.52 mm - - -
1788615031 18.89° C 77% 1020.7 hPa 1.52 mm - - -
1788614731 18.89° C 77% 1020.9 hPa 3.05 mm - - -
1788614433 18.89° C 77% 1021.1 hPa 3.05 mm - - -
1788614131 18.89° C 76% 1021.2 hPa 3.56 mm - - -
1788613831 18.33° C 73% 1021.3 hPa 5.59 mm - - -
1788613231 18.33° C 70% 1021.9 hPa 6.6 mm - - -
1788612331 20.56° C 62% 1022.3 hPa 11.43 mm - - -
1788612031 22.78° C 56% 1022.3 hPa 11.94 mm - - -
1788611431 24.44° C 51% 1021.9 hPa 11.94 mm - - -
1788611132 25° C 50% 1021.5 hPa 14.48 mm - - -

* Rain latest hour (hover to see other rain measurements)
** Current wind speed in m/s (hover to see current wind gust speed)